Soaring Guidance
Issued by NWS Reno, NV

Home | Current Version | Previous Version | Text Only | Print | Product List | Glossary On
Versions: 1 2 3 4 5 6 7 8 9 10 11 12 13 14 15 16
000
UXUS97 KREV 071446
SRGREV

SOARING FORECAST
NATIONAL WEATHER SERVICE - RENO NV
700 AM PST SUN FEB 7 2016

THIS SOARING FORECAST IS FOR THE EASTERN SIERRA AND WESTERN NEVADA
WITH SPECIFIC INDICES FOR THE GREATER RENO AREA.

THIS FORECAST IS PREPARED DAILY BY 700 AM AND IS NOT UPDATED.

FOR CURRENT FLIGHT CONDITIONS...FORECASTS...AND ADVISORIES...ACCESS
YOUR LOCAL BRIEFING OUTLET OR FLIGHT SERVICE STATION.

*******************************************************************
FORECASTED LOCAL INDICES FOR RENO:        TODAY     YESTERDAY
FORECASTED MAX TEMP AT RENO (DEG F).....     54          53
FORECASTED TRIGGER TEMPERATURE (DEG F)..     60          57
   EXCEEDED YESTERDAY BY 955 AM PST
FORECASTED MAXIMUM ALTITUDE (FT MSL)....   7500        6500
FORECASTED SOARING INDEX (FPM)..........    225         135
FORECASTED K-INDEX.........VALID 18Z....      3          -5
FORECASTED K-INDEX.........VALID 00Z....      6           4
FORECASTED LIFTED INDEX....VALID 18Z....     15          12
FORECASTED LIFTED INDEX....VALID 00Z....     14          13

AFTERNOON WINDS ALOFT FORECAST
MSL (FT) WIND/TEMP
9000  0820/+04
10000 0621/+03
12000 0522/+01
14000 0321/-04
16000 0320/-09
18000 0317/-15
24000 3615/-27
30000 3311/-44
34000 3317/-53
39000 3126/-61

SLIDE MOUNTAIN DATA:
     DATE       TIME     TEMP  DEWPT   RH         WIND (MPH)
                        (F)   (F)           | DIR  SPEED GUST
2016-02-07    05:50      32     6     28    | 052   25   29
2016-02-07    05:30      31     5     28    | 051   24   27
2016-02-07    05:20      32     6     29    | 052   23   25
2016-02-07    05:00      32     6     28    | 051   22   24

RENO TAF FORECAST:
KRNO 071120Z 0712/0812 VRB03KT P6SM FEW200
     FM072200 08005KT P6SM SKC
     FM080300 VRB03KT P6SM SKC

CARSON CITY TAF FORECAST:
KCXP 071120Z 0712/0812 VRB03KT P6SM FEW200
     FM072100 09010G15KT P6SM SKC
     FM080200 VRB03KT P6SM SKC

OUTLOOK FOR THE RENO-CARSON CITY-MINDEN AREA:
.MONDAY...SUNNY. HIGHS 52 TO 57. LIGHT WINDS BECOMING EAST AROUND
10 MPH IN THE AFTERNOON.

SUNRISE AND SUNSET
FEBRUARY  7 2016......SUNRISE   701 AM PST   SUNSET   526 PM PST
FEBRUARY  8 2016......SUNRISE   700 AM PST   SUNSET   527 PM PST



USA.gov is the U.S. government's official web portal to all federal, state and local government web resources and services.